Taholah, WA

4:08 PM PDT on October 24, 2014 (GMT -0700)
RAWS BLACK KNOB WA US | Change Station
CLOSE
Current Station
Personal Weather Station
Location: Amanda Park, WA
Elevation: 618 ft
Nearby Weather Stations

Elev 618 ft 47.41 °N, 124.10 °W | Updated 37 minutes ago

Overcast
Overcast
52 °F
Feels Like 52 °F
N
3
Wind Variable Wind from ENE
Gusts 5.0 mph

Today
High -- | Low -- °F
--% Chance of Precip.
Yesterday
High -- | Low -- °F
Precip. -- in
7:48 AM 6:12 PM
New Moon, 1% visible
Pressure 29.88 in
Visibility 7.0 miles
Clouds Overcast 12000 ft
Dew Point 49 °F
Humidity 89%
Rainfall 0.06 in
Snow Depth Not available.
UV 0 out of 12
Pollen .40 out of 12
PM2.5 Good
Flu Activity Sporadic
METAR KHQM 242253Z AUTO 05014KT 7SM OVC120 12/09 A2987 RMK AO2 SLP117 T01220089

More Conditions Fewer Conditions

Pressure 29.88 in
Visibility 7.0 miles
Clouds Overcast 12000 ft
Dew Point 49 °F
Humidity 89%
Rainfall 0.06 in
Snow Depth Not available.
UV 0 out of 12
Pollen .40 out of 12
PM2.5 Good
Flu Activity Sporadic
METAR KHQM 242253Z AUTO 05014KT 7SM OVC120 12/09 A2987 RMK AO2 SLP117 T01220089

More Conditions Fewer Conditions

10-Day Weather Forecast

Almanac

Astronomy

Oct. 24, 2014 Rise Set
Actual Time 7:48 AM PDT 6:12 PM PDT
Civil Twilight 7:17 AM PDT 6:44 PM PDT
Nautical Twilight 6:41 AM PDT 7:19 PM PDT
Astronomical Twilight 6:05 AM PDT 7:55 PM PDT
Moon 8:35 AM PDT 6:52 PM PDT
Length of Visible Light 11h 26m
Length of Day
10h 23m
Tomorrow will be 3m 11s shorter.
New Moon, 1% of the Moon is Illuminated
Today
New Moon
Oct 30
First Quarter
Nov 6
Full
Nov 14
Last Quarter
Nov 22
New

Today's Extremes

State Highs State Lows

Community

WunderPhotos

Upload Photos

1,764,705 photos uploaded!

Nearby

Air Quality

  Air Quality AQ Index Pollutant
Yesterday Good
PM2.5
Current Good
PM2.5

Snow Depth

Station Depth Elevation
Dungeness 0 in 4100 ft
Alpine Meadows 0 in 3500 ft
Mount Gardner 0 in 3000 ft
Swift Creek 0 in 3770 ft
Meadows Pass 0 in 3500 ft

Earthquake Activity

City Distance Mag. Time & Date
Birch Bay, Washington 118 miles 2.8 3:02 AM PDT
2014-10-24
Minimum magnitude displayed is 2.5.

Coastal Water Temperatures

Place Temperature
La Push, WA 53.1 °F
Westport, WA 57.9 °F
Port Angeles, WA 57.0 °F
Astoria, OR 60.1 °F

Nearby Weather Stations